Norwegian Crown — C6II4 — position and weather

sailwx.info

Track history (hours):
 
Tides and Currents Weather Stations Pressure Air Temp Water Temp Dewpoint Dewpoint Depression Visibility Wind Speed Wind Dir Waves Ship Positions

Norwegian Crown

Operator: Norwegian Cruise Line

Last reported at 2019-Sep-21 01:00 UTC. Time now 2019-Sep-21 01:11 UTC.
Position N 53°60' E 008°17'.

Type: Ship. MMSI: 308785000.

Date/timePositionNaut miles runAvg speedWind from/ knotsBaromVisibWave heightAir tempDewpointWater temp
2019-Sep-21 01:00N 53°60' E 008°17'611.9
2019-Sep-21 00:30N 53°59' E 008°07'612.7
2019-Sep-21 00:00N 53°58' E 007°56'713.6
2019-Sep-20 23:31N 53°57' E 007°45'815.8
2019-Sep-20 23:00N 53°55' E 007°32'816.3
2019-Sep-20 22:31N 53°53' E 007°19'816.1
2019-Sep-20 22:01N 53°51' E 007°05'816.7
2019-Sep-20 21:30N 53°49' E 006°52'2116.3
2019-Sep-20 20:13N 53°44' E 006°17'416.1
2019-Sep-20 20:00N 53°43' E 006°11'915.9
2019-Sep-20 19:27N 53°41' E 005°57'815.8
2019-Sep-20 18:56N 53°38' E 005°44'715.6
2019-Sep-20 18:30N 53°36' E 005°34'815.3
2019-Sep-20 18:01N 53°33' E 005°21'815.2
2019-Sep-20 17:29N 53°31' E 005°09'715.3
2019-Sep-20 17:01N 53°28' E 004°57'815.2
2019-Sep-20 16:30N 53°25' E 004°46'714.9
2019-Sep-20 16:00N 53°19' E 004°39'815.4
2019-Sep-20 15:30N 53°12' E 004°32'815.3
2019-Sep-20 15:00N 53°05' E 004°26'815.3
2019-Sep-20 14:30N 52°59' E 004°20'714.7
2019-Sep-20 14:00N 52°52' E 004°15'714.6
2019-Sep-20 13:29N 52°46' E 004°09'713.9
2019-Sep-20 13:00N 52°39' E 004°13'715.1
2019-Sep-20 12:31N 52°34' E 004°21'713.2
2019-Sep-20 12:00N 52°29' E 004°28'4 7.3
2019-Sep-20 11:29N 52°28' E 004°34'0 0.0
2019-Sep-20 10:59N 52°28' E 004°34'0 0.0
2019-Sep-20 10:26N 52°28' E 004°34'0 0.0
2019-Sep-20 09:59N 52°28' E 004°34'0 0.0
2019-Sep-20 09:29N 52°28' E 004°34'0 0.0
2019-Sep-20 08:59N 52°28' E 004°34'0 0.0
2019-Sep-20 08:29N 52°28' E 004°34'0 0.0
2019-Sep-20 07:59N 52°28' E 004°34'0 0.0
2019-Sep-20 07:29N 52°28' E 004°34'0 0.0
2019-Sep-20 06:59N 52°28' E 004°34'0 0.0
2019-Sep-20 06:29N 52°28' E 004°34'0 0.1
2019-Sep-20 06:01N 52°28' E 004°34'1 1.1
2019-Sep-20 05:31N 52°28' E 004°33'611.5
2019-Sep-20 05:00N 52°29' E 004°24'510.4
2019-Sep-20 04:30N 52°29' E 004°15'713.1
2019-Sep-20 04:00N 52°28' E 004°05'714.2
2019-Sep-20 03:30N 52°27' E 003°53'714.1
2019-Sep-20 03:00N 52°25' E 003°42'713.7
2019-Sep-20 02:30N 52°22' E 003°32'714.5
2019-Sep-20 02:00N 52°17' E 003°23'610.7
2019-Sep-20 01:26N 52°13' E 003°16'5 9.9
2019-Sep-20 00:58N 52°09' E 003°11'5 9.9
2019-Sep-20 00:30N 52°06' E 003°06'5 9.6
2019-Sep-19 23:59N 52°02' E 003°00'5 9.5
2019-Sep-19 23:25N 51°58' E 002°55'4 9.5
2019-Sep-19 22:59N 51°55' E 002°50'5 9.5
2019-Sep-19 22:27N 51°51' E 002°45'2510.5
2019-Sep-19 20:02N 51°26' E 002°43'211.0
2019-Sep-19 19:52N 51°24' E 002°43'4 8.9
2019-Sep-19 19:26N 51°25' E 002°49'815.8
2019-Sep-19 18:56N 51°25' E 003°02'715.7
2019-Sep-19 18:30N 51°24' E 003°12'815.8
2019-Sep-19 18:01N 51°25' E 003°25'713.4
2019-Sep-19 17:30N 51°26' E 003°35'5 9.6
2019-Sep-19 17:00N 51°24' E 003°43'611.6
2019-Sep-19 16:30N 51°21' E 003°50'611.8
2019-Sep-19 16:00N 51°25' E 003°57'3 6.2
2019-Sep-19 15:30N 51°24' E 004°02'5 9.9
2019-Sep-19 15:00N 51°23' E 004°10'5 9.7
2019-Sep-19 14:30N 51°20' E 004°16'4 8.6
2019-Sep-19 14:00N 51°16' E 004°19'4 7.1
2019-Sep-19 13:30N 51°14' E 004°23'1 2.2
2019-Sep-19 12:59N 51°13' E 004°24'0 0.0
2019-Sep-19 12:29N 51°13' E 004°24'0 0.0
2019-Sep-19 11:59N 51°13' E 004°24'0 0.0
2019-Sep-19 11:29N 51°13' E 004°24'0 0.0
2019-Sep-19 10:59N 51°13' E 004°24'0 0.0
2019-Sep-19 10:29N 51°13' E 004°24'0 0.0
2019-Sep-19 09:59N 51°13' E 004°24'0 0.0
2019-Sep-19 09:29N 51°13' E 004°24'0 0.0
2019-Sep-19 08:59N 51°13' E 004°24'0 0.0
2019-Sep-19 08:26N 51°13' E 004°24'0 0.0
2019-Sep-19 07:59N 51°13' E 004°24'0 0.0
2019-Sep-19 07:29N 51°13' E 004°24'0 0.0
2019-Sep-19 07:03N 51°13' E 004°24'0 0.0
2019-Sep-19 06:56N 51°13' E 004°24'0 0.0
2019-Sep-19 06:29N 51°13' E 004°24'0 0.0
2019-Sep-19 05:59N 51°13' E 004°24'0 0.1
2019-Sep-19 05:30N 51°13' E 004°24'1 2.4
2019-Sep-19 05:00N 51°14' E 004°23'3 7.0
2019-Sep-19 04:30N 51°16' E 004°18'4 7.3
2019-Sep-19 04:00N 51°19' E 004°16'5 9.1
2019-Sep-19 03:30N 51°23' E 004°13'510.1
2019-Sep-19 03:00N 51°22' E 004°05'510.7
2019-Sep-19 02:30N 51°26' E 003°59'713.5
2019-Sep-19 02:00N 51°21' E 003°52'612.8
2019-Sep-19 01:30N 51°24' E 003°43'510.7
2019-Sep-19 01:00N 51°25' E 003°34'612.7
2019-Sep-19 00:30N 51°24' E 003°24'815.4
2019-Sep-19 00:00N 51°24' E 003°12'713.8
2019-Sep-18 23:31N 51°24' E 003°01'612.8
2019-Sep-18 23:00N 51°22' E 002°52'610.9
2019-Sep-18 22:30N 51°21' E 002°43'612.0
2019-Sep-18 21:58N 51°22' E 002°33'4 8.3
2019-Sep-18 21:30N 51°21' E 002°27'4 8.2
2019-Sep-18 21:00N 51°19' E 002°21'4 8.8
2019-Sep-18 20:30N 51°17' E 002°15'5 9.3
2019-Sep-18 20:00N 51°15' E 002°08'5 9.4
2019-Sep-18 19:30N 51°12' E 002°02'5 9.6
2019-Sep-18 19:00N 51°11' E 001°54'510.0
2019-Sep-18 18:31N 51°07' E 001°49'5 9.6
2019-Sep-18 18:00N 51°04' E 001°44'5 9.8
2019-Sep-18 17:30N 51°02' E 001°51'713.2
2019-Sep-18 17:00N 51°03' E 002°02'610.2
2019-Sep-18 16:26N 51°01' E 002°10'1 0.2
2019-Sep-18 12:46N 51°00' E 002°11'0 0.0
2019-Sep-18 10:16N 51°00' E 002°11'0 0.0
2019-Sep-18 06:03N 51°00' E 002°11'0 0.3
2019-Sep-18 05:50N 51°00' E 002°11'1 2.5
2019-Sep-18 05:30N 51°01' E 002°10'3 6.5
2019-Sep-18 05:00N 51°03' E 002°07'815.3
2019-Sep-18 04:30N 51°03' E 001°55'510.9
2019-Sep-18 04:00N 51°04' E 001°46'713.1
2019-Sep-18 03:30N 51°10' E 001°42'713.5
2019-Sep-18 03:00N 51°15' E 001°49'613.0
2019-Sep-18 02:30N 51°20' E 001°54'612.0
2019-Sep-18 02:00N 51°26' E 001°56'612.2
2019-Sep-18 01:30N 51°31' E 002°02'510.7
2019-Sep-18 01:00N 51°34' E 002°09'511.0
2019-Sep-18 00:30N 51°38' E 002°15'611.8
2019-Sep-18 00:00N 51°43' E 002°21'812.1
2019-Sep-17 23:22N 51°49' E 002°27'612.0
2019-Sep-17 22:51N 51°55' E 002°23'411.9
2019-Sep-17 22:30N 51°59' E 002°20'611.9
2019-Sep-17 22:00N 52°04' E 002°15'612.0
2019-Sep-17 21:30N 52°09' E 002°10'611.9
2019-Sep-17 21:00N 52°14' E 002°06'611.8
2019-Sep-17 20:30N 52°20' E 002°02'611.5
2019-Sep-17 20:00N 52°25' E 001°58'611.3
2019-Sep-17 19:30N 52°30' E 001°53'510.1
2019-Sep-17 19:00N 52°34' E 001°48'2 4.6
2019-Sep-17 18:29N 52°35' E 001°44'0 0.0
2019-Sep-17 17:59N 52°35' E 001°44'0 0.0
2019-Sep-17 17:29N 52°35' E 001°44'0 0.0
2019-Sep-17 16:59N 52°35' E 001°44'0 0.0
2019-Sep-17 16:29N 52°35' E 001°44'0 0.0
2019-Sep-17 15:59N 52°35' E 001°44'0 0.0
2019-Sep-17 15:29N 52°35' E 001°44'0 0.0
2019-Sep-17 14:59N 52°35' E 001°44'0 0.0
2019-Sep-17 14:29N 52°35' E 001°44'0 0.0
2019-Sep-17 13:59N 52°35' E 001°44'0 0.0
2019-Sep-17 13:29N 52°35' E 001°44'0 0.0
2019-Sep-17 12:59N 52°35' E 001°44'0 0.0
2019-Sep-17 12:29N 52°35' E 001°44'0 0.2
2019-Sep-17 12:00N 52°35' E 001°45'4 8.3
2019-Sep-17 11:30N 52°32' E 001°50'1 2.9
2019-Sep-17 11:00N 52°33' E 001°52'1 1.4
2019-Sep-17 10:30N 52°33' E 001°53'510.7
2019-Sep-17 10:00N 52°38' E 001°57'612.5
2019-Sep-17 09:30N 52°43' E 002°03'612.0
2019-Sep-17 09:00N 52°49' E 002°07'815.1
2019-Sep-17 08:30N 52°55' E 002°01'714.7
2019-Sep-17 08:00N 53°02' E 001°57'713.8
2019-Sep-17 07:30N 53°08' E 001°50'714.3
2019-Sep-17 07:00N 53°14' E 001°44'714.6
2019-Sep-17 06:30N 53°20' E 001°37'815.9
2019-Sep-17 06:00N 53°26' E 001°28'816.4
2019-Sep-17 05:30N 53°32' E 001°19'916.2
2019-Sep-17 04:58N 53°38' E 001°09'916.2
2019-Sep-17 04:26N 53°45' E 000°59'1616.1
2019-Sep-17 03:25N 53°58' E 000°43'715.7
2019-Sep-17 03:00N 54°03' E 000°36'815.6
2019-Sep-17 02:30N 54°09' E 000°28'815.5
2019-Sep-17 02:00N 54°15' E 000°19'815.2
2019-Sep-17 01:30N 54°20' E 000°10'5014.7
2019-Sep-16 22:07N 54°53' W 000°55'215.4
2019-Sep-16 22:00N 54°54' W 000°58'815.6
2019-Sep-16 21:30N 54°58' W 001°09'714.8
2019-Sep-16 21:00N 55°01' W 001°21'4 7.4
2019-Sep-16 20:30N 54°59' W 001°27'0 0.3
2019-Sep-16 20:00N 54°60' W 001°27'0 0.0
2019-Sep-16 19:30N 54°60' W 001°27'0 0.0
2019-Sep-16 19:00N 54°60' W 001°27'0 0.0
2019-Sep-16 18:30N 54°60' W 001°27'0 0.0
2019-Sep-16 18:00N 54°60' W 001°27'0 0.0
2019-Sep-16 17:30N 54°60' W 001°27'0 0.0
2019-Sep-16 17:00N 54°60' W 001°27'0 0.0
2019-Sep-16 16:30N 54°60' W 001°27'0 0.0
2019-Sep-16 16:00N 54°60' W 001°27'0 0.0
2019-Sep-16 15:30N 54°60' W 001°27'0 0.0
2019-Sep-16 15:00N 54°60' W 001°27'0 0.0
2019-Sep-16 14:30N 54°60' W 001°27'0 0.0
2019-Sep-16 14:00N 54°60' W 001°27'0 0.0
2019-Sep-16 13:30N 54°60' W 001°27'0 0.0
2019-Sep-16 13:00N 54°60' W 001°27'0 0.0
2019-Sep-16 12:30N 54°60' W 001°27'0 0.0
2019-Sep-16 12:00N 54°60' W 001°27'0 0.0
2019-Sep-16 11:30N 54°60' W 001°27'0 0.0
2019-Sep-16 11:00N 54°60' W 001°27'0 0.0
2019-Sep-16 10:30N 54°60' W 001°27'0 0.0
2019-Sep-16 10:00N 54°60' W 001°27'0 0.0
2019-Sep-16 09:30N 54°60' W 001°27'0 0.0
2019-Sep-16 09:00N 54°60' W 001°27'0 0.0
2019-Sep-16 08:30N 54°60' W 001°27'0 0.0
2019-Sep-16 08:00N 54°60' W 001°27'0 0.0
2019-Sep-16 07:30N 54°60' W 001°27'1 2.4
2019-Sep-16 07:00N 55°01' W 001°26'611.3
2019-Sep-16 06:31N 55°02' W 001°16'815.0
2019-Sep-16 06:00N 55°06' W 001°04'917.1
2019-Sep-16 05:30N 55°10' W 000°52'3217.2
2019-Sep-16 03:37N 55°26' W 000°02'20414.2
2019-Sep-15 13:16N 57°02' E 005°22'410.9
2019-Sep-15 12:57N 57°03' E 005°28'510.8
2019-Sep-15 12:30N 57°06' E 005°36'510.2
2019-Sep-15 11:59N 57°07' E 005°45'510.5
2019-Sep-15 11:30N 57°09' E 005°54'510.4
2019-Sep-15 11:00N 57°10' E 006°03'510.2
2019-Sep-15 10:30N 57°11' E 006°13'510.5
2019-Sep-15 10:00N 57°12' E 006°22'611.2
2019-Sep-15 09:30N 57°14' E 006°32'511.0
2019-Sep-15 09:00N 57°16' E 006°41'611.2
2019-Sep-15 08:30N 57°18' E 006°51'611.0
2019-Sep-15 08:00N 57°20' E 007°01'510.9
2019-Sep-15 07:30N 57°22' E 007°10'611.0
2019-Sep-15 07:00N 57°24' E 007°20'511.2
2019-Sep-15 06:30N 57°26' E 007°29'611.6
2019-Sep-15 06:00N 57°28' E 007°39'611.3
2019-Sep-15 05:30N 57°30' E 007°49'611.5
2019-Sep-15 05:00N 57°32' E 007°59'611.4
2019-Sep-15 04:30N 57°33' E 008°09'611.5
2019-Sep-15 04:00N 57°35' E 008°20'611.0
2019-Sep-15 03:30N 57°37' E 008°29'510.6
2019-Sep-15 03:00N 57°38' E 008°39'510.3
2019-Sep-15 02:30N 57°40' E 008°48'5 9.7
2019-Sep-15 02:00N 57°42' E 008°57'5 9.8
2019-Sep-15 01:30N 57°43' E 009°05'5 9.5
2019-Sep-15 01:00N 57°45' E 009°14'5 9.6
2019-Sep-15 00:30N 57°46' E 009°22'510.1
2019-Sep-15 00:00N 57°48' E 009°31'510.1
2019-Sep-14 23:30N 57°49' E 009°41'510.4
2019-Sep-14 23:00N 57°51' E 009°50'610.7
2019-Sep-14 22:28N 57°51' E 010°00'511.5
2019-Sep-14 22:00N 57°51' E 010°11'612.1
2019-Sep-14 21:30N 57°51' E 010°22'510.9
2019-Sep-14 21:00N 57°51' E 010°32'713.8
2019-Sep-14 20:30N 57°49' E 010°45'816.5
2019-Sep-14 20:01N 57°41' E 010°48'917.6
2019-Sep-14 19:30N 57°32' E 010°48'917.2
2019-Sep-14 19:01N 57°24' E 010°45'2115.9
2019-Sep-14 17:43N 57°03' E 010°50'5812.2
2019-Sep-14 12:57N 56°07' E 010°26'614.1
2019-Sep-14 12:30N 56°09' E 010°16'1 2.6
2019-Sep-14 11:59N 56°09' E 010°13'0 0.0
2019-Sep-14 11:29N 56°09' E 010°13'0 0.0
2019-Sep-14 10:59N 56°09' E 010°13'0 0.0
2019-Sep-14 10:29N 56°09' E 010°13'0 0.0
2019-Sep-14 09:59N 56°09' E 010°13'0 0.0
2019-Sep-14 09:29N 56°09' E 010°13'0 0.0
2019-Sep-14 08:59N 56°09' E 010°13'0 0.0
2019-Sep-14 08:29N 56°09' E 010°13'0 0.0
2019-Sep-14 07:59N 56°09' E 010°13'0 0.0
2019-Sep-14 07:29N 56°09' E 010°13'0 0.0
2019-Sep-14 06:59N 56°09' E 010°13'0 0.3
2019-Sep-14 06:59N 56°09' E 010°13'0 0.0
2019-Sep-14 06:29N 56°09' E 010°13'0 0.0
2019-Sep-14 05:59N 56°09' E 010°13'0 0.0
2019-Sep-14 05:29N 56°09' E 010°13'0 0.0
2019-Sep-14 04:59N 56°09' E 010°13'0 0.0
2019-Sep-14 04:29N 56°09' E 010°13'0 0.0
2019-Sep-14 03:59N 56°09' E 010°13'0 0.0
2019-Sep-14 03:29N 56°09' E 010°13'0 0.0
2019-Sep-14 02:59N 56°09' E 010°13'0 0.0
2019-Sep-14 02:29N 56°09' E 010°13'0 0.0
2019-Sep-14 01:59N 56°09' E 010°13'0 0.0
2019-Sep-14 01:29N 56°09' E 010°13'0 0.0
2019-Sep-14 00:59N 56°09' E 010°13'0 0.0
2019-Sep-14 00:29N 56°09' E 010°13'0 0.0
2019-Sep-13 23:59N 56°09' E 010°13'0 0.0
2019-Sep-13 23:29N 56°09' E 010°13'0 0.0
2019-Sep-13 22:59N 56°09' E 010°13'0 0.0
2019-Sep-13 22:29N 56°09' E 010°13'0 0.0
2019-Sep-13 21:59N 56°09' E 010°13'0 0.0
2019-Sep-13 21:29N 56°09' E 010°13'0 0.0
2019-Sep-13 20:59N 56°09' E 010°13'0 0.0
2019-Sep-13 20:29N 56°09' E 010°13'0 0.0
2019-Sep-13 20:00N 56°09' E 010°13'1 2.0
2019-Sep-13 19:30N 56°10' E 010°15'4 9.0
2019-Sep-13 19:01N 56°08' E 010°22'63 2.7
2019-Sep-12 19:41N 56°13' E 012°15'310.1
2019-Sep-12 19:26N 56°12' E 012°20'510.8
2019-Sep-12 18:59N 56°10' E 012°27'510.7
2019-Sep-12 18:30N 56°06' E 012°34'510.0
2019-Sep-12 18:00N 56°03' E 012°40'5 9.9
2019-Sep-12 17:30N 55°58' E 012°42'510.2
2019-Sep-12 17:00N 55°53' E 012°44'5 9.4
2019-Sep-12 16:30N 55°48' E 012°43'611.3
2019-Sep-12 16:00N 55°43' E 012°39'2 3.2
2019-Sep-12 15:25N 55°42' E 012°36'0 0.0
2019-Sep-12 14:55N 55°42' E 012°36'0 0.0
2019-Sep-12 14:25N 55°42' E 012°36'0 0.0
2019-Sep-12 13:55N 55°42' E 012°36'0 0.0
2019-Sep-12 13:25N 55°42' E 012°36'0 0.0
2019-Sep-12 12:55N 55°42' E 012°36'0 0.0
2019-Sep-12 12:25N 55°42' E 012°36'0 0.0
2019-Sep-12 11:55N 55°42' E 012°36'0 0.0
2019-Sep-12 11:25N 55°42' E 012°36'0 0.0
2019-Sep-12 10:55N 55°42' E 012°36'0 0.0
2019-Sep-12 10:25N 55°42' E 012°36'0 0.0
2019-Sep-12 09:55N 55°42' E 012°36'0 0.1
2019-Sep-12 09:28N 55°42' E 012°36'0 0.7
2019-Sep-12 09:25N 55°42' E 012°36'0 0.2
2019-Sep-12 09:17N 55°42' E 012°36'0 0.0
2019-Sep-12 08:58N 55°42' E 012°36'0 0.7
2019-Sep-12 08:55N 55°42' E 012°36'0 8.7
2019-Sep-12 08:55N 55°42' E 012°36'2 4.6
2019-Sep-12 08:31N 55°41' E 012°39'026.9
2019-Sep-12 08:30N 55°41' E 012°39'223.3
2019-Sep-12 08:25N 55°42' E 012°36'0 0.5
2019-Sep-12 08:00N 55°42' E 012°36'010.1
2019-Sep-12 08:00N 55°42' E 012°36'0 3.3
2019-Sep-12 07:55N 55°42' E 012°36'0 0.1
2019-Sep-12 07:29N 55°42' E 012°36'0 0.5
2019-Sep-12 07:25N 55°42' E 012°36'0 0.1
2019-Sep-12 07:07N 55°42' E 012°36'0 0.3
2019-Sep-12 06:59N 55°42' E 012°36'0 0.5
2019-Sep-12 06:55N 55°42' E 012°36'0 0.0
2019-Sep-12 06:25N 55°42' E 012°36'0 0.0
2019-Sep-12 05:55N 55°42' E 012°36'0 0.1
2019-Sep-12 05:30N 55°42' E 012°36'0 0.5
2019-Sep-12 05:20N 55°42' E 012°36'0 2.1
2019-Sep-12 05:15N 55°42' E 012°36'2 7.8
2019-Sep-12 05:00N 55°44' E 012°39'510.4
2019-Sep-12 04:30N 55°48' E 012°42'612.7
2019-Sep-12 04:01N 55°54' E 012°38'611.6
2019-Sep-12 03:30N 56°00' E 012°40'1 2.5
2019-Sep-12 02:55N 56°01' E 012°42'0 0.0
2019-Sep-12 02:25N 56°01' E 012°42'0 0.0
2019-Sep-12 01:55N 56°01' E 012°42'0 0.0
2019-Sep-12 01:25N 56°01' E 012°42'0 0.0
2019-Sep-12 00:55N 56°01' E 012°42'0 0.0
2019-Sep-12 00:25N 56°01' E 012°42'0 0.0
2019-Sep-11 23:55N 56°01' E 012°42'0 0.0
2019-Sep-11 23:25N 56°01' E 012°42'0 0.0
2019-Sep-11 22:55N 56°01' E 012°42'0 0.0
2019-Sep-11 22:25N 56°01' E 012°42'0 0.0
2019-Sep-11 21:55N 56°01' E 012°42'0 0.0
2019-Sep-11 21:25N 56°01' E 012°42'0 0.0
2019-Sep-11 20:55N 56°01' E 012°42'0 0.0
2019-Sep-11 20:25N 56°01' E 012°42'0 0.0
2019-Sep-11 19:55N 56°01' E 012°42'0 0.0
2019-Sep-11 19:25N 56°01' E 012°42'0 0.0
2019-Sep-11 18:55N 56°01' E 012°42'0 0.0
2019-Sep-11 18:25N 56°01' E 012°42'0 0.0
2019-Sep-11 17:55N 56°01' E 012°42'0 0.0
2019-Sep-11 17:25N 56°01' E 012°42'0 0.0
2019-Sep-11 16:55N 56°01' E 012°42'0 0.0
2019-Sep-11 16:25N 56°01' E 012°42'0 0.0
2019-Sep-11 15:55N 56°01' E 012°42'0 0.0
2019-Sep-11 15:25N 56°01' E 012°42'0 0.0
2019-Sep-11 14:55N 56°01' E 012°42'0 0.0
2019-Sep-11 14:25N 56°01' E 012°42'0 0.0
2019-Sep-11 13:55N 56°01' E 012°42'0 0.0
2019-Sep-11 13:25N 56°01' E 012°42'0 0.0
2019-Sep-11 12:55N 56°01' E 012°42'0 0.0
2019-Sep-11 12:25N 56°01' E 012°42'0 0.0
2019-Sep-11 11:55N 56°01' E 012°42'0 0.0
2019-Sep-11 11:25N 56°01' E 012°42'0 0.0
2019-Sep-11 10:55N 56°01' E 012°42'0 0.0
2019-Sep-11 10:25N 56°01' E 012°42'0 0.0
2019-Sep-11 09:55N 56°01' E 012°42'0 0.0
2019-Sep-11 09:25N 56°01' E 012°42'0 0.0
2019-Sep-11 08:55N 56°01' E 012°42'0 0.0
2019-Sep-11 08:25N 56°01' E 012°42'0 0.1
2019-Sep-11 08:00N 56°01' E 012°42'2 3.0
2019-Sep-11 07:30N 56°00' E 012°40'5 9.9
2019-Sep-11 07:00N 56°04' E 012°36'713.6
2019-Sep-11 06:30N 56°08' E 012°26'815.6
2019-Sep-11 06:00N 56°12' E 012°14'815.8
2019-Sep-11 05:30N 56°17' E 012°02'916.0
2019-Sep-11 04:57N 56°25' E 011°58'715.9
2019-Sep-11 04:30N 56°32' E 011°55'916.1
2019-Sep-11 03:57N 56°41' E 011°53'716.0
2019-Sep-11 03:30N 56°48' E 011°50'816.0
2019-Sep-11 03:00N 56°55' E 011°45'815.9
2019-Sep-11 02:30N 57°03' E 011°40'815.9
2019-Sep-11 02:00N 57°10' E 011°35'815.7
2019-Sep-11 01:30N 57°18' E 011°30'  
Track history (hours):
 
Tides and Currents Weather Stations Pressure Air Temp Water Temp Dewpoint Dewpoint Depression Visibility Wind Speed Wind Dir Waves Ship Positions

Norwegian Crown

Operator: Norwegian Cruise Line

Last reported at 2019-Sep-21 01:00 UTC. Time now 2019-Sep-21 01:11 UTC.
Position N 53°60' E 008°17'.

Type: Ship. MMSI: 308785000.

Date/timePositionNaut miles runAvg speedWind from/ knotsBaromVisibWave heightAir tempDewpointWater temp
2019-Sep-21 01:00N 53°60' E 008°17'611.9
2019-Sep-21 00:30N 53°59' E 008°07'612.7
2019-Sep-21 00:00N 53°58' E 007°56'713.6
2019-Sep-20 23:31N 53°57' E 007°45'815.8
2019-Sep-20 23:00N 53°55' E 007°32'816.3
2019-Sep-20 22:31N 53°53' E 007°19'816.1
2019-Sep-20 22:01N 53°51' E 007°05'816.7
2019-Sep-20 21:30N 53°49' E 006°52'2116.3
2019-Sep-20 20:13N 53°44' E 006°17'416.1
2019-Sep-20 20:00N 53°43' E 006°11'915.9
2019-Sep-20 19:27N 53°41' E 005°57'815.8
2019-Sep-20 18:56N 53°38' E 005°44'715.6
2019-Sep-20 18:30N 53°36' E 005°34'815.3
2019-Sep-20 18:01N 53°33' E 005°21'815.2
2019-Sep-20 17:29N 53°31' E 005°09'715.3
2019-Sep-20 17:01N 53°28' E 004°57'815.2
2019-Sep-20 16:30N 53°25' E 004°46'714.9
2019-Sep-20 16:00N 53°19' E 004°39'815.4
2019-Sep-20 15:30N 53°12' E 004°32'815.3
2019-Sep-20 15:00N 53°05' E 004°26'815.3
2019-Sep-20 14:30N 52°59' E 004°20'714.7
2019-Sep-20 14:00N 52°52' E 004°15'714.6
2019-Sep-20 13:29N 52°46' E 004°09'713.9
2019-Sep-20 13:00N 52°39' E 004°13'715.1
2019-Sep-20 12:31N 52°34' E 004°21'713.2
2019-Sep-20 12:00N 52°29' E 004°28'4 7.3
2019-Sep-20 11:29N 52°28' E 004°34'0 0.0
2019-Sep-20 10:59N 52°28' E 004°34'0 0.0
2019-Sep-20 10:26N 52°28' E 004°34'0 0.0
2019-Sep-20 09:59N 52°28' E 004°34'0 0.0
2019-Sep-20 09:29N 52°28' E 004°34'0 0.0
2019-Sep-20 08:59N 52°28' E 004°34'0 0.0
2019-Sep-20 08:29N 52°28' E 004°34'0 0.0
2019-Sep-20 07:59N 52°28' E 004°34'0 0.0
2019-Sep-20 07:29N 52°28' E 004°34'0 0.0
2019-Sep-20 06:59N 52°28' E 004°34'0 0.0
2019-Sep-20 06:29N 52°28' E 004°34'0 0.1
2019-Sep-20 06:01N 52°28' E 004°34'1 1.1
2019-Sep-20 05:31N 52°28' E 004°33'611.5
2019-Sep-20 05:00N 52°29' E 004°24'510.4
2019-Sep-20 04:30N 52°29' E 004°15'713.1
2019-Sep-20 04:00N 52°28' E 004°05'714.2
2019-Sep-20 03:30N 52°27' E 003°53'714.1
2019-Sep-20 03:00N 52°25' E 003°42'713.7
2019-Sep-20 02:30N 52°22' E 003°32'714.5
2019-Sep-20 02:00N 52°17' E 003°23'610.7
2019-Sep-20 01:26N 52°13' E 003°16'5 9.9
2019-Sep-20 00:58N 52°09' E 003°11'5 9.9
2019-Sep-20 00:30N 52°06' E 003°06'5 9.6
2019-Sep-19 23:59N 52°02' E 003°00'5 9.5
2019-Sep-19 23:25N 51°58' E 002°55'4 9.5
2019-Sep-19 22:59N 51°55' E 002°50'5 9.5
2019-Sep-19 22:27N 51°51' E 002°45'2510.5
2019-Sep-19 20:02N 51°26' E 002°43'211.0
2019-Sep-19 19:52N 51°24' E 002°43'4 8.9
2019-Sep-19 19:26N 51°25' E 002°49'815.8
2019-Sep-19 18:56N 51°25' E 003°02'715.7
2019-Sep-19 18:30N 51°24' E 003°12'815.8
2019-Sep-19 18:01N 51°25' E 003°25'713.4
2019-Sep-19 17:30N 51°26' E 003°35'5 9.6
2019-Sep-19 17:00N 51°24' E 003°43'611.6
2019-Sep-19 16:30N 51°21' E 003°50'611.8
2019-Sep-19 16:00N 51°25' E 003°57'3 6.2
2019-Sep-19 15:30N 51°24' E 004°02'5 9.9
2019-Sep-19 15:00N 51°23' E 004°10'5 9.7
2019-Sep-19 14:30N 51°20' E 004°16'4 8.6
2019-Sep-19 14:00N 51°16' E 004°19'4 7.1
2019-Sep-19 13:30N 51°14' E 004°23'1 2.2
2019-Sep-19 12:59N 51°13' E 004°24'0 0.0
2019-Sep-19 12:29N 51°13' E 004°24'0 0.0
2019-Sep-19 11:59N 51°13' E 004°24'0 0.0
2019-Sep-19 11:29N 51°13' E 004°24'0 0.0
2019-Sep-19 10:59N 51°13' E 004°24'0 0.0
2019-Sep-19 10:29N 51°13' E 004°24'0 0.0
2019-Sep-19 09:59N 51°13' E 004°24'0 0.0
2019-Sep-19 09:29N 51°13' E 004°24'0 0.0
2019-Sep-19 08:59N 51°13' E 004°24'0 0.0
2019-Sep-19 08:26N 51°13' E 004°24'0 0.0
2019-Sep-19 07:59N 51°13' E 004°24'0 0.0
2019-Sep-19 07:29N 51°13' E 004°24'0 0.0
2019-Sep-19 07:03N 51°13' E 004°24'0 0.0
2019-Sep-19 06:56N 51°13' E 004°24'0 0.0
2019-Sep-19 06:29N 51°13' E 004°24'0 0.0
2019-Sep-19 05:59N 51°13' E 004°24'0 0.1
2019-Sep-19 05:30N 51°13' E 004°24'1 2.4
2019-Sep-19 05:00N 51°14' E 004°23'3 7.0
2019-Sep-19 04:30N 51°16' E 004°18'4 7.3
2019-Sep-19 04:00N 51°19' E 004°16'5 9.1
2019-Sep-19 03:30N 51°23' E 004°13'510.1
2019-Sep-19 03:00N 51°22' E 004°05'510.7
2019-Sep-19 02:30N 51°26' E 003°59'713.5
2019-Sep-19 02:00N 51°21' E 003°52'612.8
2019-Sep-19 01:30N 51°24' E 003°43'510.7
2019-Sep-19 01:00N 51°25' E 003°34'612.7
2019-Sep-19 00:30N 51°24' E 003°24'815.4
2019-Sep-19 00:00N 51°24' E 003°12'713.8
2019-Sep-18 23:31N 51°24' E 003°01'612.8
2019-Sep-18 23:00N 51°22' E 002°52'610.9
2019-Sep-18 22:30N 51°21' E 002°43'612.0
2019-Sep-18 21:58N 51°22' E 002°33'4 8.3
2019-Sep-18 21:30N 51°21' E 002°27'4 8.2
2019-Sep-18 21:00N 51°19' E 002°21'4 8.8
2019-Sep-18 20:30N 51°17' E 002°15'5 9.3
2019-Sep-18 20:00N 51°15' E 002°08'5 9.4
2019-Sep-18 19:30N 51°12' E 002°02'5 9.6
2019-Sep-18 19:00N 51°11' E 001°54'510.0
2019-Sep-18 18:31N 51°07' E 001°49'5 9.6
2019-Sep-18 18:00N 51°04' E 001°44'5 9.8
2019-Sep-18 17:30N 51°02' E 001°51'713.2
2019-Sep-18 17:00N 51°03' E 002°02'610.2
2019-Sep-18 16:26N 51°01' E 002°10'1 0.2
2019-Sep-18 12:46N 51°00' E 002°11'0 0.0
2019-Sep-18 10:16N 51°00' E 002°11'0 0.0
2019-Sep-18 06:03N 51°00' E 002°11'0 0.3
2019-Sep-18 05:50N 51°00' E 002°11'1 2.5
2019-Sep-18 05:30N 51°01' E 002°10'3 6.5
2019-Sep-18 05:00N 51°03' E 002°07'815.3
2019-Sep-18 04:30N 51°03' E 001°55'510.9
2019-Sep-18 04:00N 51°04' E 001°46'713.1
2019-Sep-18 03:30N 51°10' E 001°42'713.5
2019-Sep-18 03:00N 51°15' E 001°49'613.0
2019-Sep-18 02:30N 51°20' E 001°54'612.0
2019-Sep-18 02:00N 51°26' E 001°56'612.2
2019-Sep-18 01:30N 51°31' E 002°02'510.7
2019-Sep-18 01:00N 51°34' E 002°09'511.0
2019-Sep-18 00:30N 51°38' E 002°15'611.8
2019-Sep-18 00:00N 51°43' E 002°21'812.1
2019-Sep-17 23:22N 51°49' E 002°27'612.0
2019-Sep-17 22:51N 51°55' E 002°23'411.9
2019-Sep-17 22:30N 51°59' E 002°20'611.9
2019-Sep-17 22:00N 52°04' E 002°15'612.0
2019-Sep-17 21:30N 52°09' E 002°10'611.9
2019-Sep-17 21:00N 52°14' E 002°06'611.8
2019-Sep-17 20:30N 52°20' E 002°02'611.5
2019-Sep-17 20:00N 52°25' E 001°58'611.3
2019-Sep-17 19:30N 52°30' E 001°53'510.1
2019-Sep-17 19:00N 52°34' E 001°48'2 4.6
2019-Sep-17 18:29N 52°35' E 001°44'0 0.0
2019-Sep-17 17:59N 52°35' E 001°44'0 0.0
2019-Sep-17 17:29N 52°35' E 001°44'0 0.0
2019-Sep-17 16:59N 52°35' E 001°44'0 0.0
2019-Sep-17 16:29N 52°35' E 001°44'0 0.0
2019-Sep-17 15:59N 52°35' E 001°44'0 0.0
2019-Sep-17 15:29N 52°35' E 001°44'0 0.0
2019-Sep-17 14:59N 52°35' E 001°44'0 0.0
2019-Sep-17 14:29N 52°35' E 001°44'0 0.0
2019-Sep-17 13:59N 52°35' E 001°44'0 0.0
2019-Sep-17 13:29N 52°35' E 001°44'0 0.0
2019-Sep-17 12:59N 52°35' E 001°44'0 0.0
2019-Sep-17 12:29N 52°35' E 001°44'0 0.2
2019-Sep-17 12:00N 52°35' E 001°45'4 8.3
2019-Sep-17 11:30N 52°32' E 001°50'1 2.9
2019-Sep-17 11:00N 52°33' E 001°52'1 1.4
2019-Sep-17 10:30N 52°33' E 001°53'510.7
2019-Sep-17 10:00N 52°38' E 001°57'612.5
2019-Sep-17 09:30N 52°43' E 002°03'612.0
2019-Sep-17 09:00N 52°49' E 002°07'815.1
2019-Sep-17 08:30N 52°55' E 002°01'714.7
2019-Sep-17 08:00N 53°02' E 001°57'713.8
2019-Sep-17 07:30N 53°08' E 001°50'714.3
2019-Sep-17 07:00N 53°14' E 001°44'714.6
2019-Sep-17 06:30N 53°20' E 001°37'815.9
2019-Sep-17 06:00N 53°26' E 001°28'816.4
2019-Sep-17 05:30N 53°32' E 001°19'916.2
2019-Sep-17 04:58N 53°38' E 001°09'916.2
2019-Sep-17 04:26N 53°45' E 000°59'1616.1
2019-Sep-17 03:25N 53°58' E 000°43'715.7
2019-Sep-17 03:00N 54°03' E 000°36'815.6
2019-Sep-17 02:30N 54°09' E 000°28'815.5
2019-Sep-17 02:00N 54°15' E 000°19'815.2
2019-Sep-17 01:30N 54°20' E 000°10'5014.7
2019-Sep-16 22:07N 54°53' W 000°55'215.4
2019-Sep-16 22:00N 54°54' W 000°58'815.6
2019-Sep-16 21:30N 54°58' W 001°09'714.8
2019-Sep-16 21:00N 55°01' W 001°21'4 7.4
2019-Sep-16 20:30N 54°59' W 001°27'0 0.3
2019-Sep-16 20:00N 54°60' W 001°27'0 0.0
2019-Sep-16 19:30N 54°60' W 001°27'0 0.0
2019-Sep-16 19:00N 54°60' W 001°27'0 0.0
2019-Sep-16 18:30N 54°60' W 001°27'0 0.0
2019-Sep-16 18:00N 54°60' W 001°27'0 0.0
2019-Sep-16 17:30N 54°60' W 001°27'0 0.0
2019-Sep-16 17:00N 54°60' W 001°27'0 0.0
2019-Sep-16 16:30N 54°60' W 001°27'0 0.0
2019-Sep-16 16:00N 54°60' W 001°27'0 0.0
2019-Sep-16 15:30N 54°60' W 001°27'0 0.0
2019-Sep-16 15:00N 54°60' W 001°27'0 0.0
2019-Sep-16 14:30N 54°60' W 001°27'0 0.0
2019-Sep-16 14:00N 54°60' W 001°27'0 0.0
2019-Sep-16 13:30N 54°60' W 001°27'0 0.0
2019-Sep-16 13:00N 54°60' W 001°27'0 0.0
2019-Sep-16 12:30N 54°60' W 001°27'0 0.0
2019-Sep-16 12:00N 54°60' W 001°27'0 0.0
2019-Sep-16 11:30N 54°60' W 001°27'0 0.0
2019-Sep-16 11:00N 54°60' W 001°27'0 0.0
2019-Sep-16 10:30N 54°60' W 001°27'0 0.0
2019-Sep-16 10:00N 54°60' W 001°27'0 0.0
2019-Sep-16 09:30N 54°60' W 001°27'0 0.0
2019-Sep-16 09:00N 54°60' W 001°27'0 0.0
2019-Sep-16 08:30N 54°60' W 001°27'0 0.0
2019-Sep-16 08:00N 54°60' W 001°27'0 0.0
2019-Sep-16 07:30N 54°60' W 001°27'1 2.4
2019-Sep-16 07:00N 55°01' W 001°26'611.3
2019-Sep-16 06:31N 55°02' W 001°16'815.0
2019-Sep-16 06:00N 55°06' W 001°04'917.1
2019-Sep-16 05:30N 55°10' W 000°52'3217.2
2019-Sep-16 03:37N 55°26' W 000°02'20414.2
2019-Sep-15 13:16N 57°02' E 005°22'410.9
2019-Sep-15 12:57N 57°03' E 005°28'510.8
2019-Sep-15 12:30N 57°06' E 005°36'510.2
2019-Sep-15 11:59N 57°07' E 005°45'510.5
2019-Sep-15 11:30N 57°09' E 005°54'510.4
2019-Sep-15 11:00N 57°10' E 006°03'510.2
2019-Sep-15 10:30N 57°11' E 006°13'510.5
2019-Sep-15 10:00N 57°12' E 006°22'611.2
2019-Sep-15 09:30N 57°14' E 006°32'511.0
2019-Sep-15 09:00N 57°16' E 006°41'611.2
2019-Sep-15 08:30N 57°18' E 006°51'611.0
2019-Sep-15 08:00N 57°20' E 007°01'510.9
2019-Sep-15 07:30N 57°22' E 007°10'611.0
2019-Sep-15 07:00N 57°24' E 007°20'511.2
2019-Sep-15 06:30N 57°26' E 007°29'611.6
2019-Sep-15 06:00N 57°28' E 007°39'611.3
2019-Sep-15 05:30N 57°30' E 007°49'611.5
2019-Sep-15 05:00N 57°32' E 007°59'611.4
2019-Sep-15 04:30N 57°33' E 008°09'611.5
2019-Sep-15 04:00N 57°35' E 008°20'611.0
2019-Sep-15 03:30N 57°37' E 008°29'510.6
2019-Sep-15 03:00N 57°38' E 008°39'510.3
2019-Sep-15 02:30N 57°40' E 008°48'5 9.7
2019-Sep-15 02:00N 57°42' E 008°57'5 9.8
2019-Sep-15 01:30N 57°43' E 009°05'5 9.5
2019-Sep-15 01:00N 57°45' E 009°14'5 9.6
2019-Sep-15 00:30N 57°46' E 009°22'510.1
2019-Sep-15 00:00N 57°48' E 009°31'510.1
2019-Sep-14 23:30N 57°49' E 009°41'510.4
2019-Sep-14 23:00N 57°51' E 009°50'610.7
2019-Sep-14 22:28N 57°51' E 010°00'511.5
2019-Sep-14 22:00N 57°51' E 010°11'612.1
2019-Sep-14 21:30N 57°51' E 010°22'510.9
2019-Sep-14 21:00N 57°51' E 010°32'713.8
2019-Sep-14 20:30N 57°49' E 010°45'816.5
2019-Sep-14 20:01N 57°41' E 010°48'917.6
2019-Sep-14 19:30N 57°32' E 010°48'917.2
2019-Sep-14 19:01N 57°24' E 010°45'2115.9
2019-Sep-14 17:43N 57°03' E 010°50'5812.2
2019-Sep-14 12:57N 56°07' E 010°26'614.1
2019-Sep-14 12:30N 56°09' E 010°16'1 2.6
2019-Sep-14 11:59N 56°09' E 010°13'0 0.0
2019-Sep-14 11:29N 56°09' E 010°13'0 0.0
2019-Sep-14 10:59N 56°09' E 010°13'0 0.0
2019-Sep-14 10:29N 56°09' E 010°13'0 0.0
2019-Sep-14 09:59N 56°09' E 010°13'0 0.0
2019-Sep-14 09:29N 56°09' E 010°13'0 0.0
2019-Sep-14 08:59N 56°09' E 010°13'0 0.0
2019-Sep-14 08:29N 56°09' E 010°13'0 0.0
2019-Sep-14 07:59N 56°09' E 010°13'0 0.0
2019-Sep-14 07:29N 56°09' E 010°13'0 0.0
2019-Sep-14 06:59N 56°09' E 010°13'0 0.3
2019-Sep-14 06:59N 56°09' E 010°13'0 0.0
2019-Sep-14 06:29N 56°09' E 010°13'0 0.0
2019-Sep-14 05:59N 56°09' E 010°13'0 0.0
2019-Sep-14 05:29N 56°09' E 010°13'0 0.0
2019-Sep-14 04:59N 56°09' E 010°13'0 0.0
2019-Sep-14 04:29N 56°09' E 010°13'0 0.0
2019-Sep-14 03:59N 56°09' E 010°13'0 0.0
2019-Sep-14 03:29N 56°09' E 010°13'0 0.0
2019-Sep-14 02:59N 56°09' E 010°13'0 0.0
2019-Sep-14 02:29N 56°09' E 010°13'0 0.0
2019-Sep-14 01:59N 56°09' E 010°13'0 0.0
2019-Sep-14 01:29N 56°09' E 010°13'0 0.0
2019-Sep-14 00:59N 56°09' E 010°13'0 0.0
2019-Sep-14 00:29N 56°09' E 010°13'0 0.0
2019-Sep-13 23:59N 56°09' E 010°13'0 0.0
2019-Sep-13 23:29N 56°09' E 010°13'0 0.0
2019-Sep-13 22:59N 56°09' E 010°13'0 0.0
2019-Sep-13 22:29N 56°09' E 010°13'0 0.0
2019-Sep-13 21:59N 56°09' E 010°13'0 0.0
2019-Sep-13 21:29N 56°09' E 010°13'0 0.0
2019-Sep-13 20:59N 56°09' E 010°13'0 0.0
2019-Sep-13 20:29N 56°09' E 010°13'0 0.0
2019-Sep-13 20:00N 56°09' E 010°13'1 2.0
2019-Sep-13 19:30N 56°10' E 010°15'4 9.0
2019-Sep-13 19:01N 56°08' E 010°22'63 2.7
2019-Sep-12 19:41N 56°13' E 012°15'310.1
2019-Sep-12 19:26N 56°12' E 012°20'510.8
2019-Sep-12 18:59N 56°10' E 012°27'510.7
2019-Sep-12 18:30N 56°06' E 012°34'510.0
2019-Sep-12 18:00N 56°03' E 012°40'5 9.9
2019-Sep-12 17:30N 55°58' E 012°42'510.2
2019-Sep-12 17:00N 55°53' E 012°44'5 9.4
2019-Sep-12 16:30N 55°48' E 012°43'611.3
2019-Sep-12 16:00N 55°43' E 012°39'2 3.2
2019-Sep-12 15:25N 55°42' E 012°36'0 0.0
2019-Sep-12 14:55N 55°42' E 012°36'0 0.0
2019-Sep-12 14:25N 55°42' E 012°36'0 0.0
2019-Sep-12 13:55N 55°42' E 012°36'0 0.0
2019-Sep-12 13:25N 55°42' E 012°36'0 0.0
2019-Sep-12 12:55N 55°42' E 012°36'0 0.0
2019-Sep-12 12:25N 55°42' E 012°36'0 0.0
2019-Sep-12 11:55N 55°42' E 012°36'0 0.0
2019-Sep-12 11:25N 55°42' E 012°36'0 0.0
2019-Sep-12 10:55N 55°42' E 012°36'0 0.0
2019-Sep-12 10:25N 55°42' E 012°36'0 0.0
2019-Sep-12 09:55N 55°42' E 012°36'0 0.1
2019-Sep-12 09:28N 55°42' E 012°36'0 0.7
2019-Sep-12 09:25N 55°42' E 012°36'0 0.2
2019-Sep-12 09:17N 55°42' E 012°36'0 0.0
2019-Sep-12 08:58N 55°42' E 012°36'0 0.7
2019-Sep-12 08:55N 55°42' E 012°36'0 8.7
2019-Sep-12 08:55N 55°42' E 012°36'2 4.6
2019-Sep-12 08:31N 55°41' E 012°39'026.9
2019-Sep-12 08:30N 55°41' E 012°39'223.3
2019-Sep-12 08:25N 55°42' E 012°36'0 0.5
2019-Sep-12 08:00N 55°42' E 012°36'010.1
2019-Sep-12 08:00N 55°42' E 012°36'0 3.3
2019-Sep-12 07:55N 55°42' E 012°36'0 0.1
2019-Sep-12 07:29N 55°42' E 012°36'0 0.5
2019-Sep-12 07:25N 55°42' E 012°36'0 0.1
2019-Sep-12 07:07N 55°42' E 012°36'0 0.3
2019-Sep-12 06:59N 55°42' E 012°36'0 0.5
2019-Sep-12 06:55N 55°42' E 012°36'0 0.0
2019-Sep-12 06:25N 55°42' E 012°36'0 0.0
2019-Sep-12 05:55N 55°42' E 012°36'0 0.1
2019-Sep-12 05:30N 55°42' E 012°36'0 0.5
2019-Sep-12 05:20N 55°42' E 012°36'0 2.1
2019-Sep-12 05:15N 55°42' E 012°36'2 7.8
2019-Sep-12 05:00N 55°44' E 012°39'510.4
2019-Sep-12 04:30N 55°48' E 012°42'612.7
2019-Sep-12 04:01N 55°54' E 012°38'611.6
2019-Sep-12 03:30N 56°00' E 012°40'1 2.5
2019-Sep-12 02:55N 56°01' E 012°42'0 0.0
2019-Sep-12 02:25N 56°01' E 012°42'0 0.0
2019-Sep-12 01:55N 56°01' E 012°42'0 0.0
2019-Sep-12 01:25N 56°01' E 012°42'0 0.0
2019-Sep-12 00:55N 56°01' E 012°42'0 0.0
2019-Sep-12 00:25N 56°01' E 012°42'0 0.0
2019-Sep-11 23:55N 56°01' E 012°42'0 0.0
2019-Sep-11 23:25N 56°01' E 012°42'0 0.0
2019-Sep-11 22:55N 56°01' E 012°42'0 0.0
2019-Sep-11 22:25N 56°01' E 012°42'0 0.0
2019-Sep-11 21:55N 56°01' E 012°42'0 0.0
2019-Sep-11 21:25N 56°01' E 012°42'0 0.0
2019-Sep-11 20:55N 56°01' E 012°42'0 0.0
2019-Sep-11 20:25N 56°01' E 012°42'0 0.0
2019-Sep-11 19:55N 56°01' E 012°42'0 0.0
2019-Sep-11 19:25N 56°01' E 012°42'0 0.0
2019-Sep-11 18:55N 56°01' E 012°42'0 0.0
2019-Sep-11 18:25N 56°01' E 012°42'0 0.0
2019-Sep-11 17:55N 56°01' E 012°42'0 0.0
2019-Sep-11 17:25N 56°01' E 012°42'0 0.0
2019-Sep-11 16:55N 56°01' E 012°42'0 0.0
2019-Sep-11 16:25N 56°01' E 012°42'0 0.0
2019-Sep-11 15:55N 56°01' E 012°42'0 0.0
2019-Sep-11 15:25N 56°01' E 012°42'0 0.0
2019-Sep-11 14:55N 56°01' E 012°42'0 0.0
2019-Sep-11 14:25N 56°01' E 012°42'0 0.0
2019-Sep-11 13:55N 56°01' E 012°42'0 0.0
2019-Sep-11 13:25N 56°01' E 012°42'0 0.0
2019-Sep-11 12:55N 56°01' E 012°42'0 0.0
2019-Sep-11 12:25N 56°01' E 012°42'0 0.0
2019-Sep-11 11:55N 56°01' E 012°42'0 0.0
2019-Sep-11 11:25N 56°01' E 012°42'0 0.0
2019-Sep-11 10:55N 56°01' E 012°42'0 0.0
2019-Sep-11 10:25N 56°01' E 012°42'0 0.0
2019-Sep-11 09:55N 56°01' E 012°42'0 0.0
2019-Sep-11 09:25N 56°01' E 012°42'0 0.0
2019-Sep-11 08:55N 56°01' E 012°42'0 0.0
2019-Sep-11 08:25N 56°01' E 012°42'0 0.1
2019-Sep-11 08:00N 56°01' E 012°42'2 3.0
2019-Sep-11 07:30N 56°00' E 012°40'5 9.9
2019-Sep-11 07:00N 56°04' E 012°36'713.6
2019-Sep-11 06:30N 56°08' E 012°26'815.6
2019-Sep-11 06:00N 56°12' E 012°14'815.8
2019-Sep-11 05:30N 56°17' E 012°02'916.0
2019-Sep-11 04:57N 56°25' E 011°58'715.9
2019-Sep-11 04:30N 56°32' E 011°55'916.1
2019-Sep-11 03:57N 56°41' E 011°53'716.0
2019-Sep-11 03:30N 56°48' E 011°50'816.0
2019-Sep-11 03:00N 56°55' E 011°45'815.9
2019-Sep-11 02:30N 57°03' E 011°40'815.9
2019-Sep-11 02:00N 57°10' E 011°35'815.7
2019-Sep-11 01:30N 57°18' E 011°30'  

Dump ship's entire track history